AAL3135 KMIA-KLAS
Flight info
| Callsign | AAL3135 |
|---|---|
| Flight time | N/A |
| Altitude | 38000 |
| Route | GLADZ4 BAGGS REMIS Y280 LEV J86 INW HAHAA RKSTR4 |
| Aircraft | B772/H-SDE2E3FGHIJ5LORVWXY/LB1D1 |
Departure
| Time | 2026-05-03 21:20 |
|---|---|
| Airport | Miami International Airport (KMIA) |
Arrival
| Time | N/A |
|---|---|
| Airport | Harry Reid International Airport (KLAS) |
| Time | Latitude | Longitude | Altitude | Speed | Heading |
|---|---|---|---|---|---|
| 2026-05-03 20:22 | 25.79900 | -80.27405 | 9 ft | 0 kts | 132° |
| 2026-05-03 20:27 | 25.79889 | -80.27392 | 22 ft | 0 kts | 132° |
| 2026-05-03 20:27 | 25.79891 | -80.27395 | 23 ft | 0 kts | 132° |
| 2026-05-03 20:27 | 25.79882 | -80.27383 | 21 ft | 0 kts | 132° |
| 2026-05-03 20:27 | 25.79890 | -80.27393 | 22 ft | 0 kts | 132° |
| 2026-05-03 20:28 | 25.79894 | -80.27398 | 20 ft | 0 kts | 132° |
| 2026-05-03 21:02 | 25.79904 | -80.27410 | 20 ft | 4 kts | 130° |
| 2026-05-03 21:03 | 25.79922 | -80.27432 | 24 ft | 4 kts | 135° |
| 2026-05-03 21:03 | 25.79942 | -80.27451 | 23 ft | 4 kts | 152° |
| 2026-05-03 21:03 | 25.79964 | -80.27460 | 22 ft | 4 kts | 182° |
| 2026-05-03 21:03 | 25.79983 | -80.27455 | 24 ft | 4 kts | 229° |
| 2026-05-03 21:04 | 25.79990 | -80.27440 | 23 ft | 1 kts | 267° |
| 2026-05-03 21:04 | 25.79990 | -80.27435 | 23 ft | 0 kts | 267° |
| 2026-05-03 21:14 | 25.79996 | -80.27466 | 20 ft | 8 kts | 296° |
| 2026-05-03 21:14 | 25.80054 | -80.27517 | 20 ft | 13 kts | 315° |
| 2026-05-03 21:15 | 25.80069 | -80.27599 | 19 ft | 14 kts | 264° |
| 2026-05-03 21:15 | 25.80059 | -80.27738 | 19 ft | 22 kts | 266° |
| 2026-05-03 21:15 | 25.80052 | -80.27909 | 18 ft | 22 kts | 268° |
| 2026-05-03 21:15 | 25.80045 | -80.28080 | 18 ft | 22 kts | 267° |
| 2026-05-03 21:16 | 25.80038 | -80.28254 | 19 ft | 22 kts | 267° |
| 2026-05-03 21:16 | 25.80031 | -80.28424 | 19 ft | 22 kts | 267° |
| 2026-05-03 21:16 | 25.80024 | -80.28595 | 20 ft | 22 kts | 267° |
| 2026-05-03 21:16 | 25.80017 | -80.28767 | 21 ft | 22 kts | 268° |
| 2026-05-03 21:17 | 25.80011 | -80.28938 | 20 ft | 22 kts | 268° |
| 2026-05-03 21:17 | 25.80007 | -80.29052 | 21 ft | 22 kts | 268° |
| 2026-05-03 21:17 | 25.79996 | -80.29281 | 20 ft | 22 kts | 266° |
| 2026-05-03 21:17 | 25.79989 | -80.29451 | 19 ft | 22 kts | 268° |
| 2026-05-03 21:18 | 25.79982 | -80.29622 | 19 ft | 22 kts | 267° |
| 2026-05-03 21:18 | 25.79975 | -80.29789 | 19 ft | 22 kts | 267° |
| 2026-05-03 21:18 | 25.79967 | -80.29955 | 18 ft | 22 kts | 267° |
| 2026-05-03 21:18 | 25.79998 | -80.30100 | 18 ft | 10 kts | 302° |
| 2026-05-03 21:19 | 25.80057 | -80.30124 | 19 ft | 10 kts | 14° |
| 2026-05-03 21:19 | 25.80073 | -80.30101 | 18 ft | 3 kts | 72° |
| 2026-05-03 21:19 | 25.80075 | -80.30053 | 18 ft | 22 kts | 87° |
| 2026-05-03 21:19 | 25.80095 | -80.29584 | 18 ft | 97 kts | 87° |
| 2026-05-03 21:20 | 25.80137 | -80.28595 | 28 ft | 159 kts | 86° |
| 2026-05-03 21:20 | 25.80203 | -80.27298 | 589 ft | 168 kts | 86° |
| 2026-05-03 21:20 | 25.80248 | -80.25980 | 1175 ft | 178 kts | 87° |
| 2026-05-03 21:20 | 25.80287 | -80.24584 | 1900 ft | 184 kts | 88° |
| 2026-05-03 21:21 | 25.80362 | -80.23061 | 2185 ft | 207 kts | 86° |
| 2026-05-03 21:21 | 25.80445 | -80.21385 | 2367 ft | 230 kts | 87° |
| 2026-05-03 21:21 | 25.80522 | -80.19519 | 2542 ft | 250 kts | 86° |
| 2026-05-03 21:21 | 25.80970 | -80.17632 | 2748 ft | 261 kts | 57° |
| 2026-05-03 21:22 | 25.82279 | -80.16259 | 3256 ft | 263 kts | 24° |
| 2026-05-03 21:22 | 25.84038 | -80.15849 | 3706 ft | 264 kts | 359° |
| 2026-05-03 21:22 | 25.85910 | -80.15815 | 4190 ft | 272 kts | 359° |
| 2026-05-03 21:22 | 25.87816 | -80.15762 | 4867 ft | 276 kts | 359° |
| 2026-05-03 21:23 | 25.89731 | -80.15791 | 5390 ft | 275 kts | 347° |
| 2026-05-03 21:23 | 25.91579 | -80.16344 | 5956 ft | 276 kts | 338° |
| 2026-05-03 21:23 | 25.93404 | -80.17038 | 6652 ft | 279 kts | 337° |
| 2026-05-03 21:23 | 25.95249 | -80.17723 | 7287 ft | 280 kts | 338° |
| 2026-05-03 21:24 | 25.97104 | -80.18397 | 7898 ft | 279 kts | 335° |
| 2026-05-03 21:24 | 25.98714 | -80.19533 | 8317 ft | 274 kts | 308° |
| 2026-05-03 21:24 | 25.99713 | -80.21310 | 8920 ft | 270 kts | 291° |
| 2026-05-03 21:24 | 26.00436 | -80.23259 | 9461 ft | 274 kts | 289° |
| 2026-05-03 21:25 | 26.01141 | -80.25238 | 10048 ft | 275 kts | 289° |
| 2026-05-03 21:25 | 26.01855 | -80.27257 | 10365 ft | 289 kts | 289° |
| 2026-05-03 21:25 | 26.02616 | -80.29412 | 10512 ft | 310 kts | 289° |
| 2026-05-03 21:25 | 26.03437 | -80.31722 | 10671 ft | 331 kts | 289° |
| 2026-05-03 21:26 | 26.04314 | -80.34176 | 10936 ft | 349 kts | 289° |
| 2026-05-03 21:26 | 26.05230 | -80.36723 | 11494 ft | 358 kts | 289° |
| 2026-05-03 21:26 | 26.06165 | -80.39316 | 12230 ft | 363 kts | 289° |
| 2026-05-03 21:26 | 26.07107 | -80.41928 | 13102 ft | 365 kts | 289° |
| 2026-05-03 21:27 | 26.08054 | -80.44558 | 14009 ft | 369 kts | 289° |
| 2026-05-03 21:27 | 26.09016 | -80.47231 | 14817 ft | 374 kts | 289° |
| 2026-05-03 21:27 | 26.09988 | -80.49930 | 15625 ft | 377 kts | 289° |
| 2026-05-03 21:27 | 26.10965 | -80.52645 | 16432 ft | 380 kts | 289° |
| 2026-05-03 21:28 | 26.11952 | -80.55386 | 17235 ft | 380 kts | 289° |
| 2026-05-03 21:28 | 26.13321 | -80.57938 | 17777 ft | 394 kts | 306° |
| 2026-05-03 21:28 | 26.15396 | -80.60028 | 18441 ft | 410 kts | 321° |
| 2026-05-03 21:28 | 26.17957 | -80.61498 | 19073 ft | 418 kts | 330° |
| 2026-05-03 21:29 | 26.20679 | -80.62764 | 19655 ft | 426 kts | 332° |
| 2026-05-03 21:29 | 26.23439 | -80.64016 | 20333 ft | 430 kts | 332° |
| 2026-05-03 21:29 | 26.26213 | -80.65289 | 21027 ft | 433 kts | 331° |
| 2026-05-03 21:29 | 26.29005 | -80.66597 | 21678 ft | 438 kts | 330° |
| 2026-05-03 21:30 | 26.31782 | -80.67919 | 22305 ft | 442 kts | 330° |
| 2026-05-03 21:30 | 26.34621 | -80.69282 | 22888 ft | 446 kts | 329° |
| 2026-05-03 21:30 | 26.37487 | -80.70660 | 23574 ft | 451 kts | 329° |
| 2026-05-03 21:30 | 26.40291 | -80.72194 | 24056 ft | 446 kts | 320° |
| 2026-05-03 21:31 | 26.42577 | -80.74433 | 24483 ft | 433 kts | 305° |
| 2026-05-03 21:31 | 26.44553 | -80.76997 | 24858 ft | 436 kts | 304° |
| 2026-05-03 21:31 | 26.46556 | -80.79552 | 25311 ft | 440 kts | 305° |
| 2026-05-03 21:31 | 26.48617 | -80.82085 | 25796 ft | 442 kts | 306° |
| 2026-05-03 21:32 | 26.50706 | -80.84610 | 26239 ft | 444 kts | 306° |
| 2026-05-03 21:32 | 26.52809 | -80.87144 | 26669 ft | 446 kts | 306° |
| 2026-05-03 21:32 | 26.54924 | -80.89701 | 27061 ft | 449 kts | 306° |
| 2026-05-03 21:32 | 26.57046 | -80.92270 | 27437 ft | 452 kts | 306° |
| 2026-05-03 21:33 | 26.59187 | -80.94866 | 27810 ft | 454 kts | 306° |
| 2026-05-03 21:33 | 26.61329 | -80.97465 | 28166 ft | 456 kts | 306° |
| 2026-05-03 21:33 | 26.63488 | -81.00087 | 28514 ft | 458 kts | 306° |
| 2026-05-03 21:33 | 26.65654 | -81.02717 | 28837 ft | 460 kts | 306° |
| 2026-05-03 21:34 | 26.67827 | -81.05358 | 29145 ft | 462 kts | 306° |
| 2026-05-03 21:34 | 26.70007 | -81.08008 | 29430 ft | 464 kts | 306° |
| 2026-05-03 21:34 | 26.72171 | -81.10643 | 29697 ft | 467 kts | 306° |
| 2026-05-03 21:34 | 26.74377 | -81.13328 | 29924 ft | 469 kts | 306° |
| 2026-05-03 21:35 | 26.76592 | -81.16027 | 30162 ft | 471 kts | 305° |
| 2026-05-03 21:35 | 26.78810 | -81.18729 | 30441 ft | 470 kts | 305° |
| 2026-05-03 21:35 | 26.81011 | -81.21411 | 30809 ft | 467 kts | 305° |
| 2026-05-03 21:35 | 26.83206 | -81.24085 | 31177 ft | 464 kts | 304° |
| 2026-05-03 21:36 | 26.85381 | -81.26739 | 31536 ft | 461 kts | 304° |
| 2026-05-03 21:36 | 26.87544 | -81.29383 | 31870 ft | 459 kts | 304° |
| 2026-05-03 21:36 | 26.89695 | -81.32015 | 32186 ft | 457 kts | 304° |
| 2026-05-03 21:36 | 26.91840 | -81.34640 | 32482 ft | 455 kts | 303° |
| 2026-05-03 21:37 | 26.93976 | -81.37256 | 32789 ft | 454 kts | 303° |
| 2026-05-03 21:37 | 26.96101 | -81.39861 | 33094 ft | 452 kts | 303° |
| 2026-05-03 21:37 | 26.98216 | -81.42454 | 33399 ft | 450 kts | 303° |
| 2026-05-03 21:37 | 27.00319 | -81.45035 | 33704 ft | 448 kts | 303° |
| 2026-05-03 21:38 | 27.02395 | -81.47583 | 33998 ft | 446 kts | 302° |
| 2026-05-03 21:38 | 27.04497 | -81.50146 | 34255 ft | 447 kts | 304° |
| 2026-05-03 21:38 | 27.06907 | -81.52426 | 34395 ft | 462 kts | 315° |
| 2026-05-03 21:38 | 27.09645 | -81.54387 | 34457 ft | 469 kts | 317° |
| 2026-05-03 21:39 | 27.12427 | -81.56315 | 34624 ft | 470 kts | 317° |
| 2026-05-03 21:39 | 27.15207 | -81.58242 | 34866 ft | 468 kts | 317° |
| 2026-05-03 21:39 | 27.17963 | -81.60177 | 35111 ft | 466 kts | 316° |
| 2026-05-03 21:39 | 27.20697 | -81.62124 | 35358 ft | 464 kts | 316° |
| 2026-05-03 21:40 | 27.23418 | -81.64082 | 35591 ft | 463 kts | 316° |
| 2026-05-03 21:40 | 27.26127 | -81.66043 | 35809 ft | 463 kts | 316° |
| 2026-05-03 21:40 | 27.28803 | -81.67984 | 36022 ft | 463 kts | 315° |
| 2026-05-03 21:40 | 27.31506 | -81.69945 | 36266 ft | 462 kts | 315° |
| 2026-05-03 21:41 | 27.34206 | -81.71903 | 36484 ft | 461 kts | 315° |
| 2026-05-03 21:41 | 27.36910 | -81.73865 | 36717 ft | 461 kts | 315° |
| 2026-05-03 21:41 | 27.39606 | -81.75820 | 36933 ft | 460 kts | 315° |
| 2026-05-03 21:41 | 27.42304 | -81.77778 | 37121 ft | 460 kts | 315° |
| 2026-05-03 21:42 | 27.44994 | -81.79731 | 37342 ft | 460 kts | 315° |
| 2026-05-03 21:42 | 27.47781 | -81.81556 | 37510 ft | 469 kts | 322° |
| 2026-05-03 21:42 | 27.50777 | -81.83113 | 37678 ft | 475 kts | 325° |
| 2026-05-03 21:42 | 27.53805 | -81.84527 | 37853 ft | 477 kts | 326° |
| 2026-05-03 21:43 | 27.56887 | -81.85923 | 37990 ft | 478 kts | 326° |
| 2026-05-03 21:43 | 27.59976 | -81.87339 | 38056 ft | 479 kts | 325° |
| 2026-05-03 21:43 | 27.66125 | -81.90254 | 38076 ft | 479 kts | 324° |
| 2026-05-03 21:44 | 27.72235 | -81.93231 | 38081 ft | 477 kts | 324° |
| 2026-05-03 21:44 | 27.78324 | -81.96219 | 38085 ft | 476 kts | 324° |
| 2026-05-03 21:45 | 27.84408 | -81.99203 | 38076 ft | 476 kts | 324° |
| 2026-05-03 21:45 | 27.90488 | -82.02185 | 38073 ft | 475 kts | 324° |
| 2026-05-03 21:46 | 27.96554 | -82.05163 | 38072 ft | 475 kts | 324° |
| 2026-05-03 21:46 | 28.02620 | -82.08145 | 38077 ft | 475 kts | 324° |
| 2026-05-03 21:47 | 28.08624 | -82.11140 | 38069 ft | 469 kts | 320° |
| 2026-05-03 21:47 | 28.11371 | -82.13004 | 38077 ft | 455 kts | 313° |
| 2026-05-03 21:47 | 28.13950 | -82.15053 | 38086 ft | 452 kts | 311° |
| 2026-05-03 21:48 | 28.18994 | -82.19291 | 38082 ft | 452 kts | 311° |
| 2026-05-03 21:48 | 28.23250 | -82.22820 | 38083 ft | 453 kts | 311° |
| 2026-05-03 21:49 | 28.28398 | -82.26987 | 38082 ft | 455 kts | 312° |
| 2026-05-03 21:49 | 28.33550 | -82.31110 | 38084 ft | 456 kts | 312° |
| 2026-05-03 21:50 | 28.38743 | -82.35263 | 38084 ft | 457 kts | 312° |
| 2026-05-03 21:50 | 28.43971 | -82.39454 | 38080 ft | 457 kts | 312° |
| 2026-05-03 21:51 | 28.49135 | -82.43602 | 38083 ft | 457 kts | 312° |
| 2026-05-03 21:51 | 28.54330 | -82.47780 | 38071 ft | 457 kts | 311° |
| 2026-05-03 21:52 | 28.59519 | -82.51958 | 38075 ft | 456 kts | 311° |
| 2026-05-03 21:52 | 28.64701 | -82.56137 | 38081 ft | 456 kts | 311° |
| 2026-05-03 21:53 | 28.69876 | -82.60314 | 38087 ft | 455 kts | 311° |
| 2026-05-03 21:53 | 28.75039 | -82.64487 | 38084 ft | 455 kts | 311° |
| 2026-05-03 21:54 | 28.80201 | -82.68665 | 38081 ft | 454 kts | 311° |
| 2026-05-03 21:54 | 28.85345 | -82.72835 | 38083 ft | 454 kts | 311° |
| 2026-05-03 21:55 | 28.90491 | -82.77010 | 38082 ft | 453 kts | 311° |
| 2026-05-03 21:55 | 28.95626 | -82.81182 | 38085 ft | 453 kts | 311° |
| 2026-05-03 21:56 | 29.00723 | -82.85329 | 38084 ft | 452 kts | 311° |
| 2026-05-03 21:56 | 29.05847 | -82.89501 | 38082 ft | 452 kts | 311° |
| 2026-05-03 21:57 | 29.10964 | -82.93674 | 38085 ft | 452 kts | 311° |
| 2026-05-03 21:57 | 29.16095 | -82.97863 | 38089 ft | 452 kts | 311° |
| 2026-05-03 21:58 | 29.21224 | -83.02056 | 38096 ft | 453 kts | 311° |
| 2026-05-03 21:58 | 29.26354 | -83.06255 | 38090 ft | 453 kts | 311° |
| 2026-05-03 21:59 | 29.31483 | -83.10457 | 38090 ft | 453 kts | 311° |
| 2026-05-03 21:59 | 29.36583 | -83.14641 | 38103 ft | 453 kts | 311° |
| 2026-05-03 22:00 | 29.41716 | -83.18858 | 38098 ft | 454 kts | 311° |
| 2026-05-03 22:00 | 29.46855 | -83.23086 | 38103 ft | 454 kts | 311° |
| 2026-05-03 22:01 | 29.51983 | -83.27309 | 38096 ft | 454 kts | 311° |
| 2026-05-03 22:01 | 29.57113 | -83.31540 | 38098 ft | 453 kts | 311° |
| 2026-05-03 22:02 | 29.62228 | -83.35763 | 38102 ft | 453 kts | 311° |
| 2026-05-03 22:02 | 29.67340 | -83.39991 | 38112 ft | 452 kts | 311° |
| 2026-05-03 22:03 | 29.72437 | -83.44211 | 38099 ft | 452 kts | 311° |
| 2026-05-03 22:03 | 29.77546 | -83.48447 | 38107 ft | 451 kts | 311° |
| 2026-05-03 22:04 | 29.82613 | -83.52653 | 38104 ft | 451 kts | 311° |
| 2026-05-03 22:04 | 29.87711 | -83.56889 | 38109 ft | 451 kts | 311° |
| 2026-05-03 22:05 | 29.92800 | -83.61120 | 38108 ft | 451 kts | 311° |
| 2026-05-03 22:05 | 29.97889 | -83.65357 | 38105 ft | 451 kts | 311° |
| 2026-05-03 22:06 | 30.02977 | -83.69600 | 38105 ft | 451 kts | 311° |
| 2026-05-03 22:06 | 30.08063 | -83.73846 | 38106 ft | 451 kts | 311° |
| 2026-05-03 22:07 | 30.13112 | -83.78066 | 38104 ft | 450 kts | 311° |
| 2026-05-03 22:07 | 30.15513 | -83.80320 | 38119 ft | 439 kts | 305° |
| 2026-05-03 22:07 | 30.17675 | -83.82772 | 38121 ft | 432 kts | 301° |
| 2026-05-03 22:08 | 30.21423 | -83.88057 | 38117 ft | 420 kts | 295° |